Time;durP1;ratioP1;P1;durP2;ratioP2;P2;SDS_P1;SDS_P2;PMS_P1;PMS_P2;Temp;Humidity;BMP_temperature;BMP_pressure;BME280_temperature;BME280_humidity;BME280_pressure;Samples;Min_cycle;Max_cycle;Signal;HPM_P1;HPM_P2
2022/08/01 00:01:16;;;;;;;3.20;2.90;;;;;;;20.84;96.60;96405.31;4968389;28;20196;-77
2022/08/01 00:03:44;;;;;;;3.25;2.95;;;;;;;20.86;95.33;96397.63;4963665;28;20220;-78
2022/08/01 00:06:11;;;;;;;3.00;2.63;;;;;;;20.82;95.37;96393.84;4962525;28;20308;-77
2022/08/01 00:08:38;;;;;;;2.95;2.65;;;;;;;20.86;92.50;96392.13;4968065;28;20312;-78
2022/08/01 00:11:08;;;;;;;3.65;2.70;;;;;;;20.84;91.21;96388.06;4966776;28;20205;-77
2022/08/01 00:13:36;;;;;;;3.08;2.78;;;;;;;20.89;93.92;96388.81;4964075;28;20270;-78
2022/08/01 00:16:03;;;;;;;5.00;3.30;;;;;;;20.87;97.14;96391.03;4951641;28;20213;-78
2022/08/01 00:18:30;;;;;;;6.47;2.85;;;;;;;20.83;95.96;96387.25;4962008;28;20253;-78
2022/08/01 00:20:57;;;;;;;3.30;2.83;;;;;;;20.80;92.60;96395.25;4946535;28;20241;-77
2022/08/01 00:23:24;;;;;;;3.55;2.92;;;;;;;20.83;94.69;96389.19;4952517;28;20220;-77
2022/08/01 00:25:51;;;;;;;3.20;2.80;;;;;;;20.80;92.75;96387.84;4970704;28;20208;-77
2022/08/01 00:28:19;;;;;;;3.35;2.78;;;;;;;20.87;90.25;96382.78;4966090;28;20218;-78
2022/08/01 00:30:46;;;;;;;2.90;2.58;;;;;;;20.87;93.73;96379.22;4965015;28;20215;-77
2022/08/01 00:33:13;;;;;;;3.17;2.70;;;;;;;20.90;95.15;96386.88;4965469;28;20220;-78
2022/08/01 00:35:40;;;;;;;3.95;2.75;;;;;;;20.84;93.31;96391.59;4966584;28;20211;-77
2022/08/01 00:38:07;;;;;;;2.80;2.60;;;;;;;20.82;94.42;96385.63;4962078;28;20225;-78
2022/08/01 00:40:34;;;;;;;2.97;2.67;;;;;;;20.80;97.41;96385.09;4966228;28;20197;-78
2022/08/01 00:43:01;;;;;;;3.13;2.83;;;;;;;20.72;96.03;96383.00;4960907;28;20209;-78
2022/08/01 00:45:30;;;;;;;5.43;2.60;;;;;;;20.73;95.68;96379.16;4964328;28;20200;-77
2022/08/01 00:47:57;;;;;;;3.10;2.80;;;;;;;20.73;95.47;96381.91;4963501;28;20288;-77
2022/08/01 00:50:24;;;;;;;3.85;2.67;;;;;;;20.72;95.09;96389.31;4962276;28;20292;-78
2022/08/01 00:52:51;;;;;;;3.15;2.80;;;;;;;20.69;93.39;96383.56;4966289;28;20216;-77
2022/08/01 00:55:21;;;;;;;3.00;2.70;;;;;;;20.68;92.07;96388.25;4963420;28;20236;-78
2022/08/01 00:57:48;;;;;;;3.20;2.58;;;;;;;20.69;90.48;96369.84;4966520;28;20236;-78
2022/08/01 01:00:16;;;;;;;3.17;2.50;;;;;;;20.80;89.84;96389.75;4965686;28;20224;-78
2022/08/01 01:02:45;;;;;;;3.15;2.90;;;;;;;20.82;91.52;96385.63;4981726;28;20239;-78
2022/08/01 01:05:12;;;;;;;2.90;2.67;;;;;;;20.86;91.30;96383.09;4960333;28;20213;-78
2022/08/01 01:07:49;;;;;;;3.88;2.65;;;;;;;20.79;92.93;96388.94;4965998;28;20219;-77
2022/08/01 01:10:21;;;;;;;3.63;2.80;;;;;;;20.73;92.23;96388.19;4978651;28;20213;-77
2022/08/01 01:13:00;;;;;;;6.35;2.88;;;;;;;20.77;92.15;96377.44;4957769;28;20213;-77
2022/08/01 01:15:31;;;;;;;3.67;2.80;;;;;;;20.71;91.62;96384.94;4959720;28;20205;-78
2022/08/01 01:18:04;;;;;;;4.15;2.70;;;;;;;20.69;91.19;96386.31;4963954;28;20232;-78
2022/08/01 01:20:36;;;;;;;5.10;2.63;;;;;;;20.68;91.09;96382.75;4959974;28;20240;-78
2022/08/01 01:23:35;;;;;;;3.80;2.60;;;;;;;20.70;91.46;96379.72;4956339;28;20225;-78
2022/08/01 01:26:24;;;;;;;3.08;2.78;;;;;;;20.72;91.88;96381.06;4963842;28;20209;-78
2022/08/01 01:29:14;;;;;;;4.30;3.00;;;;;;;20.72;92.34;96377.50;4962365;28;20269;-78
2022/08/01 01:31:52;;;;;;;2.92;2.45;;;;;;;20.72;91.23;96383.81;4979213;28;20202;-78
2022/08/01 01:34:22;;;;;;;5.50;2.58;;;;;;;20.70;90.88;96379.72;4964870;28;20220;-77
2022/08/01 01:36:50;;;;;;;6.60;2.70;;;;;;;20.76;89.23;96384.03;4963584;28;20229;-77
2022/08/01 01:39:18;;;;;;;4.05;2.75;;;;;;;20.67;88.71;96378.38;4966111;28;20205;-78
2022/08/01 01:41:47;;;;;;;3.67;2.63;;;;;;;20.70;89.30;96371.50;4961145;28;20193;-78
2022/08/01 01:44:17;;;;;;;3.40;2.92;;;;;;;20.67;89.49;96374.84;4966013;28;20209;-77
2022/08/01 01:46:45;;;;;;;4.30;2.60;;;;;;;20.69;89.87;96370.69;4968128;28;20223;-78
2022/08/01 01:49:13;;;;;;;4.68;2.60;;;;;;;20.69;90.15;96373.41;4961467;28;20212;-77
2022/08/01 01:51:42;;;;;;;3.90;2.78;;;;;;;20.72;90.41;96380.25;4963382;28;20245;-77
2022/08/01 01:54:11;;;;;;;5.55;2.78;;;;;;;20.66;92.89;96384.19;4961648;28;20225;-77
2022/08/01 01:56:49;;;;;;;3.55;2.60;;;;;;;20.56;93.23;96382.38;4956877;28;20239;-77
2022/08/01 01:59:21;;;;;;;3.92;2.70;;;;;;;20.39;94.84;96391.06;4957808;28;20333;-77
2022/08/01 02:01:50;;;;;;;4.43;2.95;;;;;;;20.28;96.79;96386.78;4960037;28;20272;-78
2022/08/01 02:04:18;;;;;;;5.18;2.70;;;;;;;20.26;96.82;96394.47;4957156;28;20213;-77
2022/08/01 02:06:47;;;;;;;3.67;2.75;;;;;;;20.26;96.71;96399.94;4962261;28;20212;-77
2022/08/01 02:09:18;;;;;;;3.28;2.80;;;;;;;20.26;96.24;96394.47;4952638;28;20213;-77
2022/08/01 02:11:46;;;;;;;5.10;3.20;;;;;;;20.26;97.39;96405.44;4960080;28;20220;-78
2022/08/01 02:14:15;;;;;;;3.08;2.88;;;;;;;20.24;98.99;96404.09;4958745;28;20224;-77
2022/08/01 02:16:48;;;;;;;3.28;2.97;;;;;;;20.16;100.00;96396.53;4963616;28;20272;-78
2022/08/01 02:19:15;;;;;;;2.95;2.72;;;;;;;20.08;100.00;96397.94;4956472;28;20265;-77
2022/08/01 02:21:50;;;;;;;4.40;2.55;;;;;;;20.04;100.00;96399.63;4954168;28;20212;-78
2022/08/01 02:24:26;;;;;;;5.75;2.80;;;;;;;19.97;100.00;96402.72;4978478;28;20272;-78
2022/08/01 02:26:57;;;;;;;2.85;2.65;;;;;;;19.91;100.00;96405.78;4980831;28;20204;-78
2022/08/01 02:29:32;;;;;;;4.18;2.55;;;;;;;19.92;100.00;96404.69;4964789;28;20205;-78
2022/08/01 02:32:02;;;;;;;3.78;2.70;;;;;;;19.91;100.00;96411.25;4959195;28;20551;-77
2022/08/01 02:34:32;;;;;;;4.07;2.65;;;;;;;19.84;100.00;96410.78;4965121;28;20213;-78
2022/08/01 02:37:01;;;;;;;3.45;2.83;;;;;;;19.83;100.00;96412.69;4957571;28;20280;-78
2022/08/01 02:39:31;;;;;;;3.05;2.55;;;;;;;19.78;100.00;96415.50;4961267;28;20240;-78
2022/08/01 02:42:08;;;;;;;3.00;2.80;;;;;;;19.78;100.00;96418.22;4963802;28;20205;-78
2022/08/01 02:44:40;;;;;;;4.28;2.72;;;;;;;19.74;100.00;96408.13;4962065;28;20209;-77
2022/08/01 02:47:10;;;;;;;5.28;3.10;;;;;;;19.76;100.00;96403.19;4963241;28;20264;-78
2022/08/01 02:49:42;;;;;;;4.50;3.17;;;;;;;19.68;100.00;96409.28;4959384;28;20201;-78
2022/08/01 02:52:13;;;;;;;7.15;3.17;;;;;;;19.61;100.00;96415.91;4962051;28;20220;-78
2022/08/01 02:54:42;;;;;;;3.25;2.72;;;;;;;19.54;100.00;96418.16;4961142;28;20209;-78
2022/08/01 02:57:10;;;;;;;3.67;3.00;;;;;;;19.47;100.00;96420.41;4958411;28;20234;-77
2022/08/01 02:59:39;;;;;;;4.25;2.80;;;;;;;19.41;100.00;96418.75;4957282;28;20267;-78
2022/08/01 03:02:10;;;;;;;5.88;3.03;;;;;;;19.30;100.00;96417.22;4960633;28;20208;-78
2022/08/01 03:04:39;;;;;;;4.70;3.00;;;;;;;19.27;100.00;96418.59;4959980;28;20212;-78
2022/08/01 03:07:09;;;;;;;3.27;3.00;;;;;;;19.33;100.00;96416.63;4967011;28;20292;-78
2022/08/01 03:09:39;;;;;;;5.00;3.08;;;;;;;19.37;100.00;96411.41;4964212;28;20267;-77
2022/08/01 03:12:11;;;;;;;4.70;3.10;;;;;;;19.35;100.00;96419.06;4955906;28;20201;-78
2022/08/01 03:14:43;;;;;;;4.63;3.13;;;;;;;19.22;100.00;96409.59;4955431;28;20299;-77
2022/08/01 03:17:12;;;;;;;3.20;2.90;;;;;;;19.07;100.00;96402.28;4967296;28;20252;-78
2022/08/01 03:19:40;;;;;;;5.97;3.50;;;;;;;19.07;100.00;96404.19;4966366;28;20271;-78
2022/08/01 03:22:10;;;;;;;4.23;3.10;;;;;;;19.08;100.00;96403.09;4962993;28;20212;-77
2022/08/01 03:24:39;;;;;;;3.43;3.13;;;;;;;19.05;100.00;96403.69;4961040;28;20209;-77
2022/08/01 03:27:07;;;;;;;3.63;2.80;;;;;;;18.90;100.00;96394.44;4957814;28;20207;-78
2022/08/01 03:29:37;;;;;;;4.17;3.30;;;;;;;18.79;100.00;96403.81;4961374;28;20208;-78
2022/08/01 03:32:05;;;;;;;5.10;2.97;;;;;;;18.85;100.00;96413.63;4957684;28;20196;-77
2022/08/01 03:34:34;;;;;;;3.90;3.23;;;;;;;18.84;100.00;96409.25;4964311;28;20225;-78
2022/08/01 03:37:06;;;;;;;5.97;3.30;;;;;;;18.82;100.00;96396.94;4961518;28;20212;-77
2022/08/01 03:39:48;;;;;;;3.43;3.20;;;;;;;18.86;100.00;96406.22;4961824;28;20208;-77
2022/08/01 03:42:20;;;;;;;3.73;3.40;;;;;;;18.91;100.00;96408.94;4972762;28;20205;-78
2022/08/01 03:44:55;;;;;;;3.27;3.00;;;;;;;18.90;100.00;96418.22;4959320;28;20205;-78
2022/08/01 03:47:27;;;;;;;3.30;3.00;;;;;;;18.92;100.00;96421.50;4963004;28;20212;-77
2022/08/01 03:49:57;;;;;;;4.33;3.07;;;;;;;18.98;100.00;96414.09;4963072;28;20260;-78
2022/08/01 03:52:26;;;;;;;3.33;3.03;;;;;;;19.01;100.00;96413.53;4960099;28;20296;-78
2022/08/01 03:54:56;;;;;;;6.07;3.27;;;;;;;18.96;100.00;96397.16;4958487;28;20252;-77
2022/08/01 03:57:25;;;;;;;5.90;3.30;;;;;;;18.93;100.00;96408.66;4962881;28;20315;-78
2022/08/01 03:59:53;;;;;;;3.90;3.07;;;;;;;18.87;100.00;96405.13;4958003;28;20212;-78
2022/08/01 04:02:21;;;;;;;5.03;3.37;;;;;;;18.78;100.00;96413.13;4956841;28;20295;-77
2022/08/01 04:04:48;;;;;;;3.83;3.37;;;;;;;18.73;100.00;96393.16;4965627;28;20218;-78
2022/08/01 04:07:27;;;;;;;5.70;3.17;;;;;;;18.72;100.00;96408.75;4964865;28;20256;-77
2022/08/01 04:09:54;;;;;;;3.73;3.00;;;;;;;18.67;100.00;96406.03;4959619;28;20229;-78
2022/08/01 04:12:22;;;;;;;3.10;2.80;;;;;;;18.69;100.00;96406.59;4966929;28;20213;-78
2022/08/01 04:14:49;;;;;;;4.20;3.50;;;;;;;18.58;100.00;96415.91;4965976;28;20237;-77
2022/08/01 04:17:16;;;;;;;3.60;3.30;;;;;;;18.60;100.00;96410.19;4967220;28;20200;-78
2022/08/01 04:19:44;;;;;;;4.63;3.60;;;;;;;18.62;100.00;96418.94;4984526;28;20283;-78
2022/08/01 04:22:14;;;;;;;3.20;2.90;;;;;;;18.64;100.00;96420.25;4965069;28;20204;-78
2022/08/01 04:24:48;;;;;;;4.77;3.30;;;;;;;18.67;100.00;96407.94;4966322;28;20308;-78
2022/08/01 04:27:18;;;;;;;3.77;3.03;;;;;;;18.71;100.00;96417.25;4966924;28;20296;-78
2022/08/01 04:29:47;;;;;;;3.50;3.20;;;;;;;18.67;100.00;96419.72;4964272;28;20284;-78
2022/08/01 04:32:16;;;;;;;5.20;3.43;;;;;;;18.61;100.00;96414.56;4960817;28;20205;-78
2022/08/01 04:34:46;;;;;;;4.57;3.30;;;;;;;18.66;100.00;96423.53;4960843;28;20218;-78
2022/08/01 04:37:17;;;;;;;3.83;3.43;;;;;;;18.73;100.00;96421.31;4956834;28;20206;-78
2022/08/01 04:39:47;;;;;;;4.07;3.17;;;;;;;18.68;100.00;96428.75;4968999;28;20268;-78
2022/08/01 04:42:16;;;;;;;5.17;3.37;;;;;;;18.67;100.00;96427.09;4964090;28;20208;-78
2022/08/01 04:44:43;;;;;;;4.00;2.90;;;;;;;18.59;100.00;96428.50;4954623;28;20213;-78
2022/08/01 04:47:12;;;;;;;3.07;2.73;;;;;;;18.64;100.00;96431.19;4963490;28;20201;-78
2022/08/01 04:49:40;;;;;;;5.80;3.10;;;;;;;18.71;100.00;96431.75;4962625;28;20217;-78
2022/08/01 04:52:07;;;;;;;3.10;2.80;;;;;;;18.75;100.00;96443.75;4968865;28;20213;-78
2022/08/01 04:54:37;;;;;;;3.67;3.00;;;;;;;18.75;100.00;96438.28;4964728;28;20212;-78
2022/08/01 04:57:06;;;;;;;5.37;3.13;;;;;;;18.80;100.00;96430.03;4964992;28;20236;-78
2022/08/01 04:59:42;;;;;;;3.73;3.43;;;;;;;18.84;100.00;96425.66;4964475;28;20236;-78
2022/08/01 05:02:12;;;;;;;3.07;2.70;;;;;;;18.99;100.00;96437.63;4979190;28;20217;-77
2022/08/01 05:04:40;;;;;;;3.83;3.03;;;;;;;19.05;100.00;96431.03;4979753;28;20217;-77
2022/08/01 05:07:09;;;;;;;3.08;2.78;;;;;;;19.02;100.00;96437.06;4969350;28;20209;-78
2022/08/01 05:09:36;;;;;;;3.70;3.40;;;;;;;19.01;100.00;96438.97;4962279;28;20216;-77
2022/08/01 05:12:07;;;;;;;4.10;3.10;;;;;;;18.99;100.00;96432.97;4956518;28;20209;-77
2022/08/01 05:14:34;;;;;;;3.40;2.90;;;;;;;19.06;100.00;96432.66;4966425;28;20211;-78
2022/08/01 05:17:02;;;;;;;4.37;2.80;;;;;;;19.11;100.00;96424.44;4960159;28;20205;-78
2022/08/01 05:19:31;;;;;;;4.87;2.93;;;;;;;19.14;100.00;96432.88;4959116;28;20241;-78
2022/08/01 05:22:00;;;;;;;3.13;2.93;;;;;;;19.15;100.00;96430.97;4962476;28;20234;-77
2022/08/01 05:24:28;;;;;;;3.33;3.00;;;;;;;19.03;100.00;96425.03;4962718;28;20278;-77
2022/08/01 05:26:55;;;;;;;5.87;3.20;;;;;;;19.06;100.00;96435.38;4963945;28;20200;-78
2022/08/01 05:29:24;;;;;;;3.50;3.20;;;;;;;19.03;100.00;96427.75;4965769;28;20205;-78
2022/08/01 05:31:51;;;;;;;3.23;2.87;;;;;;;19.19;100.00;96440.25;4986476;28;20302;-78
2022/08/01 05:34:18;;;;;;;5.23;3.07;;;;;;;19.15;99.65;96434.53;4967456;28;20204;-78
2022/08/01 05:36:45;;;;;;;2.90;2.60;;;;;;;19.21;99.15;96430.66;4953800;28;20221;-78
2022/08/01 05:39:12;;;;;;;5.73;2.77;;;;;;;19.18;97.57;96427.66;4961061;28;20224;-78
2022/08/01 05:41:40;;;;;;;3.30;3.00;;;;;;;19.14;99.08;96432.09;4968481;28;20211;-78
2022/08/01 05:44:07;;;;;;;5.57;3.00;;;;;;;19.08;99.99;96430.47;4960676;28;20333;-78
2022/08/01 05:46:36;;;;;;;3.27;2.97;;;;;;;19.07;100.00;96437.03;4961415;28;20258;-78
2022/08/01 05:49:05;;;;;;;5.10;2.90;;;;;;;19.00;100.00;96431.06;4967550;28;20209;-78
2022/08/01 05:51:32;;;;;;;3.90;3.13;;;;;;;18.88;100.00;96423.97;4965889;28;20201;-78
2022/08/01 05:54:00;;;;;;;4.20;3.27;;;;;;;18.85;100.00;96426.47;4967630;28;20211;-78
2022/08/01 05:56:27;;;;;;;3.33;3.03;;;;;;;18.94;100.00;96432.19;4965663;28;20210;-78
2022/08/01 05:58:54;;;;;;;4.23;3.00;;;;;;;18.94;100.00;96427.53;4962977;28;20233;-78
2022/08/01 06:01:22;;;;;;;5.33;3.20;;;;;;;18.85;100.00;96427.31;4963497;28;20220;-78
2022/08/01 06:03:50;;;;;;;4.40;3.10;;;;;;;18.86;100.00;96434.41;4955868;28;20204;-77
2022/08/01 06:06:17;;;;;;;5.00;2.83;;;;;;;18.90;100.00;96427.25;4964606;28;20217;-78
2022/08/01 06:08:44;;;;;;;4.03;3.63;;;;;;;18.97;100.00;96428.91;4956680;28;20200;-78
2022/08/01 06:11:12;;;;;;;4.80;3.30;;;;;;;18.99;100.00;96423.94;4952921;28;20210;-78
2022/08/01 06:13:39;;;;;;;3.60;3.30;;;;;;;19.02;100.00;96428.84;4951638;28;20298;-78
2022/08/01 06:16:06;;;;;;;4.17;3.67;;;;;;;19.06;100.00;96422.53;4955583;28;20209;-78
2022/08/01 06:18:33;;;;;;;3.93;3.27;;;;;;;19.07;100.00;96417.88;4974369;28;20225;-78
2022/08/01 06:21:01;;;;;;;4.67;3.10;;;;;;;19.14;100.00;96421.94;4957335;28;20243;-78
2022/08/01 06:23:28;;;;;;;3.93;3.00;;;;;;;19.10;100.00;96431.00;4958455;28;20212;-78
2022/08/01 06:25:55;;;;;;;3.87;3.13;;;;;;;18.95;100.00;96425.63;4953747;28;20628;-78
2022/08/01 06:28:23;;;;;;;4.40;3.37;;;;;;;18.96;100.00;96425.34;4949688;28;20213;-78
2022/08/01 06:30:53;;;;;;;3.23;2.80;;;;;;;18.94;100.00;96422.06;4954532;28;20259;-78
2022/08/01 06:33:20;;;;;;;2.97;2.77;;;;;;;19.05;100.00;96431.88;4956002;28;20205;-78
2022/08/01 06:35:47;;;;;;;3.27;2.97;;;;;;;19.03;100.00;96414.06;4948581;28;20291;-80
2022/08/01 06:38:16;;;;;;;3.43;3.10;;;;;;;19.07;100.00;96428.81;4948776;28;20338;-80
2022/08/01 06:40:43;;;;;;;3.93;2.90;;;;;;;19.09;100.00;96421.16;4954060;28;20216;-80
2022/08/01 06:43:11;;;;;;;4.60;3.23;;;;;;;19.11;100.00;96419.78;4954382;28;20220;-80
2022/08/01 06:45:38;;;;;;;4.03;2.97;;;;;;;19.16;100.00;96411.53;4953392;28;20275;-80
2022/08/01 06:48:05;;;;;;;3.77;3.07;;;;;;;19.21;100.00;96407.94;4954960;28;20265;-80
2022/08/01 06:50:35;;;;;;;3.67;3.00;;;;;;;19.19;100.00;96404.69;4958978;28;20215;-80
2022/08/01 06:53:02;;;;;;;3.30;3.00;;;;;;;19.19;100.00;96402.75;4957594;28;20307;-80
2022/08/01 06:55:30;;;;;;;3.40;3.10;;;;;;;19.27;100.00;96407.63;4954500;28;20213;-80
2022/08/01 06:57:58;;;;;;;3.70;3.40;;;;;;;19.28;100.00;96406.53;4953359;28;20303;-80
2022/08/01 07:00:26;;;;;;;3.40;3.10;;;;;;;19.30;100.00;96413.66;4971074;28;20291;-80
2022/08/01 07:02:56;;;;;;;3.72;3.13;;;;;;;19.31;100.00;96410.59;4956388;28;20229;-80
2022/08/01 07:05:23;;;;;;;3.70;3.40;;;;;;;19.34;100.00;96415.53;4954956;28;20248;-81
2022/08/01 07:07:51;;;;;;;3.43;3.10;;;;;;;19.35;100.00;96408.13;4958641;28;20284;-80
2022/08/01 07:10:18;;;;;;;5.10;4.03;;;;;;;19.39;100.00;96409.22;4957267;28;20247;-80
2022/08/01 07:12:47;;;;;;;3.88;3.35;;;;;;;19.35;100.00;96408.94;4956524;28;20209;-80
2022/08/01 07:15:15;;;;;;;3.10;2.88;;;;;;;19.41;100.00;96407.78;4955984;28;20243;-81
2022/08/01 07:17:43;;;;;;;3.80;3.40;;;;;;;19.40;100.00;96406.16;4957102;28;20268;-80
2022/08/01 07:20:12;;;;;;;3.78;2.88;;;;;;;19.48;100.00;96402.84;4954636;28;20236;-80
2022/08/01 07:22:40;;;;;;;3.78;3.10;;;;;;;19.59;100.00;96392.63;4952690;28;20217;-80
2022/08/01 07:25:08;;;;;;;3.30;3.05;;;;;;;19.86;100.00;96394.88;4951204;28;20220;-78
2022/08/01 07:27:36;;;;;;;2.92;2.72;;;;;;;20.42;100.00;96394.31;4958496;28;20212;-82
2022/08/01 07:30:06;;;;;;;3.40;3.10;;;;;;;20.98;100.00;96403.50;4961954;28;20213;-82
2022/08/01 07:32:34;;;;;;;5.25;2.90;;;;;;;21.60;100.00;96393.31;4959157;28;20213;-82
2022/08/01 07:35:02;;;;;;;3.17;2.80;;;;;;;21.97;100.00;96388.81;4954174;28;20209;-82
2022/08/01 07:37:29;;;;;;;4.55;2.70;;;;;;;22.16;96.41;96384.13;4965009;28;20256;-82
2022/08/01 07:39:56;;;;;;;3.35;2.58;;;;;;;22.41;96.45;96385.56;4960237;28;20229;-82
2022/08/01 07:42:23;;;;;;;2.67;2.47;;;;;;;22.72;93.67;96383.81;4956392;28;20213;-82
2022/08/01 07:44:50;;;;;;;3.00;2.70;;;;;;;23.03;91.90;96381.28;4958172;28;20226;-82
2022/08/01 07:47:25;;;;;;;2.80;2.60;;;;;;;23.38;86.59;96382.44;4959936;28;20248;-82
2022/08/01 07:49:52;;;;;;;2.90;2.60;;;;;;;23.48;83.85;96379.41;4963962;28;20228;-82
2022/08/01 07:52:19;;;;;;;3.88;2.80;;;;;;;23.35;84.21;96372.84;4954753;28;20263;-82
2022/08/01 07:54:46;;;;;;;4.15;2.60;;;;;;;23.39;83.44;96379.34;4960808;28;20201;-81
2022/08/01 07:57:13;;;;;;;3.03;2.83;;;;;;;23.61;82.37;96375.03;4980392;28;20225;-82
2022/08/01 07:59:41;;;;;;;3.15;2.88;;;;;;;24.13;79.97;96382.53;4963532;28;20320;-82
2022/08/01 08:02:08;;;;;;;3.13;2.65;;;;;;;24.54;77.61;96386.97;4954514;28;20220;-83
2022/08/01 08:04:36;;;;;;;2.53;2.33;;;;;;;24.47;72.46;96376.38;4957336;28;20217;-82
2022/08/01 08:07:03;;;;;;;3.53;2.88;;;;;;;24.57;72.50;96375.28;4962105;28;20204;-81
2022/08/01 08:09:31;;;;;;;3.10;2.80;;;;;;;24.77;72.95;96371.13;4962827;28;20205;-82
2022/08/01 08:11:59;;;;;;;3.72;3.17;;;;;;;25.25;71.99;96376.63;4967232;28;20216;-82
2022/08/01 08:14:26;;;;;;;4.95;2.90;;;;;;;25.60;69.68;96374.72;4979390;28;20213;-81
2022/08/01 08:16:53;;;;;;;5.18;3.55;;;;;;;25.96;66.70;96377.13;4963721;28;20213;-81
2022/08/01 08:19:21;;;;;;;3.65;3.10;;;;;;;26.17;65.34;96366.19;4961783;28;20345;-82
2022/08/01 08:21:49;;;;;;;3.97;3.20;;;;;;;26.25;63.77;96366.16;4970413;28;20311;-82
2022/08/01 08:24:23;;;;;;;4.90;3.65;;;;;;;26.37;64.32;96363.53;4958337;28;20264;-82
2022/08/01 08:26:54;;;;;;;5.97;3.45;;;;;;;26.43;64.93;96368.91;4959183;28;21733;-82
2022/08/01 08:29:22;;;;;;;4.97;3.78;;;;;;;26.80;63.18;96370.84;4964287;28;20220;-82
2022/08/01 08:31:50;;;;;;;3.47;3.17;;;;;;;27.13;61.39;96370.22;4954255;28;20202;-82
2022/08/01 08:34:17;;;;;;;5.13;3.65;;;;;;;27.36;60.70;96377.06;4956178;28;20217;-82
2022/08/01 08:36:45;;;;;;;4.15;3.67;;;;;;;27.36;60.84;96364.00;4959475;28;20208;-81
2022/08/01 08:39:13;;;;;;;3.70;3.30;;;;;;;27.47;61.80;96364.41;4958866;28;20213;-82
2022/08/01 08:41:40;;;;;;;4.50;3.13;;;;;;;27.39;62.34;96376.41;4961909;28;20205;-82
2022/08/01 08:44:09;;;;;;;3.50;3.20;;;;;;;27.56;60.43;96372.72;4959284;28;20261;-81
2022/08/01 08:46:42;;;;;;;3.50;3.08;;;;;;;27.61;60.17;96373.31;4958742;28;20201;-82
2022/08/01 08:49:09;;;;;;;5.22;3.83;;;;;;;27.45;61.90;96366.72;4957935;28;20213;-82
2022/08/01 08:51:39;;;;;;;3.30;2.90;;;;;;;27.64;59.81;96367.09;4959389;28;20205;-82
2022/08/01 08:54:07;;;;;;;3.70;3.40;;;;;;;27.71;60.03;96370.13;4959776;28;20220;-82
2022/08/01 08:56:38;;;;;;;3.58;3.22;;;;;;;27.77;58.93;96356.84;4964352;28;20228;-82
2022/08/01 08:59:05;;;;;;;3.47;3.17;;;;;;;28.02;59.88;96353.00;4961709;28;20219;-82
2022/08/01 09:01:34;;;;;;;4.65;3.03;;;;;;;27.94;59.45;96362.22;4963769;28;20221;-82
2022/08/01 09:04:03;;;;;;;3.97;3.10;;;;;;;27.88;60.46;96351.69;4955170;28;20292;-82
2022/08/01 09:06:30;;;;;;;3.60;3.30;;;;;;;28.05;59.44;96355.09;4968314;28;20217;-82
2022/08/01 09:08:57;;;;;;;3.50;3.20;;;;;;;27.96;57.35;96350.78;4960614;28;20213;-82
2022/08/01 09:11:24;;;;;;;3.58;3.25;;;;;;;27.93;58.05;96349.50;4965934;28;20209;-82
2022/08/01 09:14:09;;;;;;;5.03;3.00;;;;;;;28.07;56.99;96349.22;4962560;28;20208;-82
2022/08/01 09:16:37;;;;;;;3.45;3.15;;;;;;;27.78;57.34;96345.41;4968103;28;20239;-81
2022/08/01 09:19:09;;;;;;;6.95;3.42;;;;;;;27.98;56.13;96342.94;4967563;28;20328;-82
2022/08/01 09:21:36;;;;;;;5.15;3.53;;;;;;;27.96;57.15;96348.00;4961300;28;20267;-81
2022/08/01 09:24:05;;;;;;;3.15;2.90;;;;;;;28.07;56.06;96335.34;4960357;28;20267;-82
2022/08/01 09:26:35;;;;;;;4.53;3.78;;;;;;;28.29;54.89;96334.94;4962477;28;20217;-82
2022/08/01 09:29:05;;;;;;;3.30;2.97;;;;;;;28.58;54.78;96337.50;4961922;28;20288;-82
2022/08/01 09:31:42;;;;;;;3.47;2.90;;;;;;;28.75;51.67;96330.13;4952439;28;20201;-82
2022/08/01 09:34:10;;;;;;;2.92;2.63;;;;;;;28.82;51.40;96319.28;4965495;28;20215;-81
2022/08/01 09:36:55;;;;;;;3.28;2.97;;;;;;;28.83;51.09;96326.47;4960389;28;20214;-82
2022/08/01 09:39:25;;;;;;;3.38;2.90;;;;;;;28.80;50.34;96324.38;4965450;28;20283;-82
2022/08/01 09:41:53;;;;;;;5.25;2.67;;;;;;;28.93;51.08;96325.97;4967901;28;20228;-82
2022/08/01 09:44:20;;;;;;;4.03;2.90;;;;;;;29.04;49.12;96317.97;4961377;28;20249;-82
2022/08/01 09:46:54;;;;;;;3.10;2.80;;;;;;;29.01;49.44;96325.03;4980383;28;20209;-83
2022/08/01 09:49:32;;;;;;;3.05;2.85;;;;;;;29.15;48.69;96319.94;4965637;28;20286;-82
2022/08/01 09:52:10;;;;;;;4.35;3.00;;;;;;;29.18;48.24;96308.09;4985325;28;20216;-83
2022/08/01 09:54:37;;;;;;;3.08;2.78;;;;;;;29.28;49.29;96304.81;4964257;28;20260;-81
2022/08/01 09:57:15;;;;;;;3.20;2.88;;;;;;;29.39;48.03;96304.38;4968409;28;20308;-82
2022/08/01 09:59:44;;;;;;;3.47;3.17;;;;;;;29.45;48.62;96294.59;4963478;28;20295;-82
2022/08/01 10:02:15;;;;;;;6.00;3.20;;;;;;;29.43;49.92;96286.63;4955306;28;20290;-82
2022/08/01 10:04:49;;;;;;;4.80;2.95;;;;;;;29.65;48.85;96288.03;4968231;28;20213;-82
2022/08/01 10:07:16;;;;;;;5.60;5.05;;;;;;;29.75;48.24;96278.38;4980075;28;20213;-82
2022/08/01 10:09:45;;;;;;;4.68;3.05;;;;;;;29.71;46.72;96273.50;4969156;28;20288;-82
2022/08/01 10:12:15;;;;;;;3.03;2.83;;;;;;;29.66;47.13;96275.75;4966372;28;20213;-81
2022/08/01 10:14:43;;;;;;;6.47;2.97;;;;;;;29.60;48.04;96268.84;4960850;28;20208;-83
2022/08/01 10:17:13;;;;;;;3.30;3.00;;;;;;;29.70;47.41;96285.81;4959877;28;20259;-81
2022/08/01 10:19:43;;;;;;;3.42;2.78;;;;;;;29.70;48.72;96262.72;4975787;28;20243;-82
2022/08/01 10:22:13;;;;;;;2.90;2.60;;;;;;;29.82;49.21;96273.81;4964916;28;20289;-82
2022/08/01 10:24:42;;;;;;;3.67;3.08;;;;;;;29.79;48.60;96273.69;4967243;28;20299;-82
2022/08/01 10:27:10;;;;;;;3.00;2.80;;;;;;;29.94;48.25;96262.63;4964023;28;20209;-82
2022/08/01 10:29:42;;;;;;;2.90;2.60;;;;;;;30.14;48.60;96269.13;4965424;28;20205;-82
2022/08/01 10:32:10;;;;;;;3.63;2.47;;;;;;;29.81;46.11;96255.50;4963467;28;20220;-82
2022/08/01 10:34:39;;;;;;;3.10;2.80;;;;;;;29.69;44.79;96252.75;4961818;28;20212;-82
2022/08/01 10:37:07;;;;;;;5.25;2.70;;;;;;;29.82;47.50;96250.72;4966975;28;20204;-82
2022/08/01 10:39:35;;;;;;;3.05;2.85;;;;;;;29.83;47.67;96250.38;4955684;28;20237;-82
2022/08/01 10:42:06;;;;;;;4.50;2.70;;;;;;;29.78;47.63;96253.41;4962541;28;20213;-82
2022/08/01 10:44:35;;;;;;;3.55;2.78;;;;;;;29.63;46.11;96245.84;4976541;28;20220;-81
2022/08/01 10:47:09;;;;;;;3.10;2.80;;;;;;;29.50;47.14;96247.88;4958460;28;20221;-82
2022/08/01 10:49:41;;;;;;;3.33;2.58;;;;;;;29.48;48.11;96232.72;4963639;28;20208;-81
2022/08/01 10:52:08;;;;;;;2.88;2.67;;;;;;;29.59;47.66;96237.41;4957431;28;20202;-82
2022/08/01 10:54:41;;;;;;;3.40;2.63;;;;;;;29.73;46.76;96236.97;4959823;28;20272;-82
2022/08/01 10:57:10;;;;;;;3.88;2.70;;;;;;;29.97;48.38;96231.28;4961499;28;20325;-82
2022/08/01 10:59:48;;;;;;;5.50;2.70;;;;;;;30.07;47.59;96224.38;4953669;28;20225;-81
2022/08/01 11:02:26;;;;;;;3.22;2.58;;;;;;;30.23;47.60;96221.59;4957076;28;20208;-82
2022/08/01 11:05:01;;;;;;;3.67;2.65;;;;;;;30.23;45.64;96222.41;4981333;28;20216;-81
2022/08/01 11:07:44;;;;;;;3.97;2.83;;;;;;;30.23;46.28;96225.19;4980113;28;20228;-81
2022/08/01 11:10:23;;;;;;;3.97;2.40;;;;;;;30.43;45.62;96220.53;4954361;28;20218;-81
2022/08/01 11:12:50;;;;;;;2.65;2.45;;;;;;;30.35;44.14;96219.53;4955775;28;20237;-82
2022/08/01 11:15:25;;;;;;;3.10;2.83;;;;;;;30.42;45.65;96213.31;4956876;28;20289;-82
2022/08/01 11:17:54;;;;;;;2.85;2.65;;;;;;;30.56;42.57;96218.44;4957437;28;20209;-81
2022/08/01 11:20:25;;;;;;;2.88;2.33;;;;;;;30.50;42.06;96217.91;4965432;28;20240;-81
2022/08/01 11:23:28;;;;;;;3.83;2.70;;;;;;;30.50;42.46;96209.53;4965638;28;20208;-82
2022/08/01 11:26:11;;;;;;;2.70;2.50;;;;;;;30.65;42.18;96210.69;4965446;28;20201;-82
2022/08/01 11:28:40;;;;;;;3.10;2.80;;;;;;;30.53;42.94;96196.91;4959309;28;20303;-81
2022/08/01 11:31:31;;;;;;;3.33;2.67;;;;;;;30.63;42.30;96202.69;4965509;28;20272;-82
2022/08/01 11:33:59;;;;;;;3.45;2.80;;;;;;;30.72;43.08;96194.94;4963756;28;20209;-82
2022/08/01 11:36:28;;;;;;;3.50;2.60;;;;;;;30.88;43.17;96192.09;4959323;28;20217;-82
2022/08/01 11:39:16;;;;;;;2.83;2.47;;;;;;;30.83;42.02;96190.44;4961944;28;20237;-82
2022/08/01 11:41:44;;;;;;;3.78;2.70;;;;;;;30.98;42.06;96185.97;4953067;28;20224;-82